sensor_id;sensor_type;location;lat;lon;timestamp;pressure;altitude;pressure_sealevel;temperature;humidity
27304;BME280;14791;52.392;13.092;2023-02-17T00:00:21;101519.17;;;14.34;44.45
27304;BME280;14791;52.392;13.092;2023-02-17T00:02:57;101519.17;;;14.34;44.43
27304;BME280;14791;52.392;13.092;2023-02-17T00:05:27;101511.69;;;14.32;44.45
27304;BME280;14791;52.392;13.092;2023-02-17T00:07:56;101512.30;;;14.30;44.50
27304;BME280;14791;52.392;13.092;2023-02-17T00:10:24;101502.00;;;14.29;44.57
27304;BME280;14791;52.392;13.092;2023-02-17T00:12:53;101493.30;;;14.25;44.72
27304;BME280;14791;52.392;13.092;2023-02-17T00:15:22;101489.75;;;14.25;44.88
27304;BME280;14791;52.392;13.092;2023-02-17T00:17:51;101496.56;;;14.23;44.92
27304;BME280;14791;52.392;13.092;2023-02-17T00:20:20;101486.39;;;14.21;45.00
27304;BME280;14791;52.392;13.092;2023-02-17T00:22:49;101484.28;;;14.19;45.00
27304;BME280;14791;52.392;13.092;2023-02-17T00:25:18;101482.56;;;14.18;45.04
27304;BME280;14791;52.392;13.092;2023-02-17T00:27:46;101481.22;;;14.18;45.30
27304;BME280;14791;52.392;13.092;2023-02-17T00:30:16;101479.39;;;14.19;45.36
27304;BME280;14791;52.392;13.092;2023-02-17T00:32:44;101478.54;;;14.18;45.48
27304;BME280;14791;52.392;13.092;2023-02-17T00:35:13;101473.38;;;14.15;45.67
27304;BME280;14791;52.392;13.092;2023-02-17T00:37:42;101479.69;;;14.14;45.83
27304;BME280;14791;52.392;13.092;2023-02-17T00:40:13;101479.50;;;14.10;45.92
27304;BME280;14791;52.392;13.092;2023-02-17T00:42:42;101478.27;;;14.09;45.97
27304;BME280;14791;52.392;13.092;2023-02-17T00:45:11;101479.70;;;14.07;46.01
27304;BME280;14791;52.392;13.092;2023-02-17T00:47:40;101474.33;;;14.07;46.04
27304;BME280;14791;52.392;13.092;2023-02-17T00:50:10;101465.50;;;14.05;46.12
27304;BME280;14791;52.392;13.092;2023-02-17T00:52:39;101463.31;;;14.04;46.15
27304;BME280;14791;52.392;13.092;2023-02-17T00:55:08;101458.42;;;14.04;46.18
27304;BME280;14791;52.392;13.092;2023-02-17T00:57:37;101457.17;;;14.02;46.25
27304;BME280;14791;52.392;13.092;2023-02-17T01:00:06;101457.29;;;14.01;46.23
27304;BME280;14791;52.392;13.092;2023-02-17T01:02:36;101446.63;;;13.99;46.27
27304;BME280;14791;52.392;13.092;2023-02-17T01:05:05;101443.18;;;13.97;46.33
27304;BME280;14791;52.392;13.092;2023-02-17T01:07:34;101440.70;;;13.94;46.53
27304;BME280;14791;52.392;13.092;2023-02-17T01:10:04;101430.63;;;13.91;46.60
27304;BME280;14791;52.392;13.092;2023-02-17T01:12:33;101438.31;;;13.90;46.64
27304;BME280;14791;52.392;13.092;2023-02-17T01:15:04;101432.17;;;13.88;46.72
27304;BME280;14791;52.392;13.092;2023-02-17T01:17:33;101429.69;;;13.85;46.76
27304;BME280;14791;52.392;13.092;2023-02-17T01:20:03;101440.03;;;13.83;46.86
27304;BME280;14791;52.392;13.092;2023-02-17T01:22:32;101427.58;;;13.82;46.84
27304;BME280;14791;52.392;13.092;2023-02-17T01:25:02;101421.72;;;13.83;46.88
27304;BME280;14791;52.392;13.092;2023-02-17T01:27:31;101414.36;;;13.79;46.94
27304;BME280;14791;52.392;13.092;2023-02-17T01:30:00;101399.68;;;13.78;47.02
27304;BME280;14791;52.392;13.092;2023-02-17T01:32:28;101405.91;;;13.78;47.09
27304;BME280;14791;52.392;13.092;2023-02-17T01:34:57;101402.65;;;13.80;47.12
27304;BME280;14791;52.392;13.092;2023-02-17T01:37:26;101402.65;;;13.80;47.16
27304;BME280;14791;52.392;13.092;2023-02-17T01:39:55;101403.91;;;13.82;47.13
27304;BME280;14791;52.392;13.092;2023-02-17T01:42:24;101398.90;;;13.83;47.16
27304;BME280;14791;52.392;13.092;2023-02-17T01:47:57;101389.41;;;13.85;47.18
27304;BME280;14791;52.392;13.092;2023-02-17T01:50:38;101390.56;;;13.80;47.17
27304;BME280;14791;52.392;13.092;2023-02-17T01:53:03;101380.97;;;13.76;47.19
27304;BME280;14791;52.392;13.092;2023-02-17T01:55:34;101375.73;;;13.75;47.23
27304;BME280;14791;52.392;13.092;2023-02-17T01:58:06;101377.55;;;13.74;47.27
27304;BME280;14791;52.392;13.092;2023-02-17T02:00:37;101377.16;;;13.73;47.33
27304;BME280;14791;52.392;13.092;2023-02-17T02:03:08;101366.91;;;13.73;47.46
27304;BME280;14791;52.392;13.092;2023-02-17T02:05:39;101364.59;;;13.74;47.56
27304;BME280;14791;52.392;13.092;2023-02-17T02:08:10;101361.45;;;13.74;47.67
27304;BME280;14791;52.392;13.092;2023-02-17T02:10:39;101360.11;;;13.74;47.74
27304;BME280;14791;52.392;13.092;2023-02-17T02:13:09;101358.77;;;13.74;47.77
27304;BME280;14791;52.392;13.092;2023-02-17T02:15:42;101357.78;;;13.75;47.76
27304;BME280;14791;52.392;13.092;2023-02-17T02:18:21;101350.22;;;13.75;47.88
27304;BME280;14791;52.392;13.092;2023-02-17T02:21:19;101340.70;;;13.76;47.87
27304;BME280;14791;52.392;13.092;2023-02-17T02:24:05;101334.97;;;13.75;47.93
27304;BME280;14791;52.392;13.092;2023-02-17T02:29:58;101321.66;;;13.67;48.05
27304;BME280;14791;52.392;13.092;2023-02-17T02:34:56;101306.77;;;13.48;48.40
27304;BME280;14791;52.392;13.092;2023-02-17T02:37:45;101313.56;;;13.47;48.49
27304;BME280;14791;52.392;13.092;2023-02-17T02:40:10;101306.58;;;13.44;48.62
27304;BME280;14791;52.392;13.092;2023-02-17T02:42:41;101314.64;;;13.37;48.60
27304;BME280;14791;52.392;13.092;2023-02-17T02:45:11;101307.25;;;13.33;48.67
27304;BME280;14791;52.392;13.092;2023-02-17T02:47:49;101304.86;;;13.29;48.79
27304;BME280;14791;52.392;13.092;2023-02-17T02:53:23;101303.33;;;13.17;49.13
27304;BME280;14791;52.392;13.092;2023-02-17T02:56:01;101297.86;;;13.12;49.28
27304;BME280;14791;52.392;13.092;2023-02-17T02:58:45;101286.96;;;13.08;49.39
27304;BME280;14791;52.392;13.092;2023-02-17T03:06:53;101275.27;;;13.02;49.58
27304;BME280;14791;52.392;13.092;2023-02-17T03:09:25;101269.54;;;13.01;49.54
27304;BME280;14791;52.392;13.092;2023-02-17T03:11:55;101263.49;;;12.97;49.66
27304;BME280;14791;52.392;13.092;2023-02-17T03:14:26;101264.47;;;12.96;49.70
27304;BME280;14791;52.392;13.092;2023-02-17T03:16:57;101262.44;;;12.99;49.79
27304;BME280;14791;52.392;13.092;2023-02-17T03:19:27;101252.68;;;12.98;49.86
27304;BME280;14791;52.392;13.092;2023-02-17T03:22:00;101241.10;;;12.98;49.88
27304;BME280;14791;52.392;13.092;2023-02-17T03:24:28;101239.27;;;12.98;49.92
27304;BME280;14791;52.392;13.092;2023-02-17T03:26:57;101241.10;;;12.98;50.04
27304;BME280;14791;52.392;13.092;2023-02-17T03:29:26;101246.34;;;12.99;50.09
27304;BME280;14791;52.392;13.092;2023-02-17T03:31:56;101242.89;;;12.97;50.15
27304;BME280;14791;52.392;13.092;2023-02-17T03:34:25;101252.28;;;12.97;50.26
27304;BME280;14791;52.392;13.092;2023-02-17T03:36:54;101255.08;;;12.96;50.37
27304;BME280;14791;52.392;13.092;2023-02-17T03:39:23;101254.40;;;12.92;50.52
27304;BME280;14791;52.392;13.092;2023-02-17T03:41:52;101250.49;;;12.91;50.59
27304;BME280;14791;52.392;13.092;2023-02-17T03:44:21;101250.20;;;12.88;50.69
27304;BME280;14791;52.392;13.092;2023-02-17T03:46:50;101254.41;;;12.85;50.75
27304;BME280;14791;52.392;13.092;2023-02-17T03:49:19;101260.33;;;12.83;50.94
27304;BME280;14791;52.392;13.092;2023-02-17T03:51:48;101247.13;;;12.80;51.11
27304;BME280;14791;52.392;13.092;2023-02-17T03:54:17;101238.72;;;12.79;51.20
27304;BME280;14791;52.392;13.092;2023-02-17T03:56:46;101238.81;;;12.77;51.29
27304;BME280;14791;52.392;13.092;2023-02-17T03:59:15;101237.95;;;12.77;51.44
27304;BME280;14791;52.392;13.092;2023-02-17T04:01:43;101234.02;;;12.75;51.55
27304;BME280;14791;52.392;13.092;2023-02-17T04:04:12;101239.01;;;12.74;51.66
27304;BME280;14791;52.392;13.092;2023-02-17T04:06:41;101228.86;;;12.72;51.75
27304;BME280;14791;52.392;13.092;2023-02-17T04:09:10;101234.70;;;12.72;51.88
27304;BME280;14791;52.392;13.092;2023-02-17T04:11:39;101226.27;;;12.71;51.96
27304;BME280;14791;52.392;13.092;2023-02-17T04:14:08;101219.68;;;12.69;52.04
27304;BME280;14791;52.392;13.092;2023-02-17T04:16:37;101216.23;;;12.67;52.25
27304;BME280;14791;52.392;13.092;2023-02-17T04:19:09;101212.48;;;12.70;52.34
27304;BME280;14791;52.392;13.092;2023-02-17T04:21:38;101216.51;;;12.70;52.44
27304;BME280;14791;52.392;13.092;2023-02-17T04:24:07;101210.18;;;12.71;52.57
27304;BME280;14791;52.392;13.092;2023-02-17T04:26:36;101214.97;;;12.73;52.61
27304;BME280;14791;52.392;13.092;2023-02-17T04:29:05;101210.58;;;12.72;52.55
27304;BME280;14791;52.392;13.092;2023-02-17T04:31:34;101201.97;;;12.74;52.60
27304;BME280;14791;52.392;13.092;2023-02-17T04:34:03;101199.66;;;12.75;52.67
27304;BME280;14791;52.392;13.092;2023-02-17T04:36:32;101197.83;;;12.75;52.75
27304;BME280;14791;52.392;13.092;2023-02-17T04:39:01;101195.55;;;12.76;52.81
27304;BME280;14791;52.392;13.092;2023-02-17T04:41:30;101192.38;;;12.77;52.79
27304;BME280;14791;52.392;13.092;2023-02-17T04:43:59;101186.05;;;12.78;52.85
27304;BME280;14791;52.392;13.092;2023-02-17T04:46:28;101192.17;;;12.80;52.80
27304;BME280;14791;52.392;13.092;2023-02-17T04:48:57;101192.30;;;12.79;52.82
27304;BME280;14791;52.392;13.092;2023-02-17T04:51:26;101194.98;;;12.79;52.81
27304;BME280;14791;52.392;13.092;2023-02-17T04:53:54;101190.47;;;12.79;52.87
27304;BME280;14791;52.392;13.092;2023-02-17T04:56:23;101184.91;;;12.82;52.94
27304;BME280;14791;52.392;13.092;2023-02-17T04:58:52;101184.91;;;12.82;52.92
27304;BME280;14791;52.392;13.092;2023-02-17T05:01:21;101182.14;;;12.84;52.89
27304;BME280;14791;52.392;13.092;2023-02-17T05:03:50;101177.72;;;12.83;52.86
27304;BME280;14791;52.392;13.092;2023-02-17T05:06:19;101181.25;;;12.83;52.89
27304;BME280;14791;52.392;13.092;2023-02-17T05:08:48;101176.78;;;12.84;52.88
27304;BME280;14791;52.392;13.092;2023-02-17T05:11:17;101174.95;;;12.84;52.92
27304;BME280;14791;52.392;13.092;2023-02-17T05:13:46;101184.70;;;12.85;52.95
27304;BME280;14791;52.392;13.092;2023-02-17T05:16:15;101173.41;;;12.87;53.00
27304;BME280;14791;52.392;13.092;2023-02-17T05:18:44;101169.37;;;12.87;53.03
27304;BME280;14791;52.392;13.092;2023-02-17T05:21:13;101164.70;;;12.91;52.99
27304;BME280;14791;52.392;13.092;2023-02-17T05:23:41;101165.91;;;12.92;53.02
27304;BME280;14791;52.392;13.092;2023-02-17T05:26:10;101171.11;;;12.95;53.05
27304;BME280;14791;52.392;13.092;2023-02-17T05:28:39;101157.09;;;12.97;53.05
27304;BME280;14791;52.392;13.092;2023-02-17T05:31:08;101155.58;;;13.01;52.99
27304;BME280;14791;52.392;13.092;2023-02-17T05:33:37;101152.77;;;13.02;52.92
27304;BME280;14791;52.392;13.092;2023-02-17T05:36:09;101146.34;;;13.05;52.90
27304;BME280;14791;52.392;13.092;2023-02-17T05:38:38;101138.70;;;13.06;52.90
27304;BME280;14791;52.392;13.092;2023-02-17T05:41:08;101140.89;;;13.06;52.85
27304;BME280;14791;52.392;13.092;2023-02-17T05:43:36;101142.14;;;13.08;52.86
27304;BME280;14791;52.392;13.092;2023-02-17T05:46:06;101144.25;;;13.10;52.83
27304;BME280;14791;52.392;13.092;2023-02-17T05:48:35;101141.08;;;13.10;52.82
27304;BME280;14791;52.392;13.092;2023-02-17T05:51:04;101141.94;;;13.11;52.82
27304;BME280;14791;52.392;13.092;2023-02-17T05:53:33;101135.14;;;13.12;52.89
27304;BME280;14791;52.392;13.092;2023-02-17T05:56:02;101131.57;;;13.12;52.94
27304;BME280;14791;52.392;13.092;2023-02-17T05:58:31;101134.07;;;13.15;52.99
27304;BME280;14791;52.392;13.092;2023-02-17T06:01:00;101137.89;;;13.18;52.99
27304;BME280;14791;52.392;13.092;2023-02-17T06:03:29;101137.67;;;13.21;52.98
27304;BME280;14791;52.392;13.092;2023-02-17T06:05:58;101136.61;;;13.24;53.00
27304;BME280;14791;52.392;13.092;2023-02-17T06:08:27;101136.88;;;13.26;52.99
27304;BME280;14791;52.392;13.092;2023-02-17T06:10:56;101134.41;;;13.30;53.02
27304;BME280;14791;52.392;13.092;2023-02-17T06:13:25;101126.27;;;13.32;53.00
27304;BME280;14791;52.392;13.092;2023-02-17T06:15:55;101127.03;;;13.34;52.99
27304;BME280;14791;52.392;13.092;2023-02-17T06:18:23;101131.79;;;13.36;52.99
27304;BME280;14791;52.392;13.092;2023-02-17T06:20:54;101117.22;;;13.40;52.95
27304;BME280;14791;52.392;13.092;2023-02-17T06:23:24;101114.80;;;13.43;52.94
27304;BME280;14791;52.392;13.092;2023-02-17T06:25:53;101109.84;;;13.44;53.01
27304;BME280;14791;52.392;13.092;2023-02-17T06:28:22;101107.30;;;13.48;53.02
27304;BME280;14791;52.392;13.092;2023-02-17T06:30:51;101103.09;;;13.51;52.99
27304;BME280;14791;52.392;13.092;2023-02-17T06:33:20;101109.58;;;13.54;52.97
27304;BME280;14791;52.392;13.092;2023-02-17T06:35:50;101105.73;;;13.58;53.00
27304;BME280;14791;52.392;13.092;2023-02-17T06:38:19;101102.83;;;13.61;52.96
27304;BME280;14791;52.392;13.092;2023-02-17T06:40:48;101105.69;;;13.65;52.91
27304;BME280;14791;52.392;13.092;2023-02-17T06:43:17;101097.91;;;13.68;52.89
27304;BME280;14791;52.392;13.092;2023-02-17T06:45:45;101094.51;;;13.71;52.87
27304;BME280;14791;52.392;13.092;2023-02-17T06:48:14;101092.09;;;13.74;52.89
27304;BME280;14791;52.392;13.092;2023-02-17T06:50:43;101100.32;;;13.78;52.82
27304;BME280;14791;52.392;13.092;2023-02-17T06:53:12;101090.24;;;13.81;52.77
27304;BME280;14791;52.392;13.092;2023-02-17T06:55:43;101090.52;;;13.84;52.77
27304;BME280;14791;52.392;13.092;2023-02-17T06:58:12;101088.95;;;13.87;52.71
27304;BME280;14791;52.392;13.092;2023-02-17T07:00:41;101087.50;;;13.89;52.76
27304;BME280;14791;52.392;13.092;2023-02-17T07:03:10;101093.60;;;13.91;52.80
27304;BME280;14791;52.392;13.092;2023-02-17T07:05:39;101093.02;;;13.93;52.82
27304;BME280;14791;52.392;13.092;2023-02-17T07:08:07;101096.72;;;13.97;52.77
27304;BME280;14791;52.392;13.092;2023-02-17T07:10:37;101093.81;;;14.00;52.76
27304;BME280;14791;52.392;13.092;2023-02-17T07:13:06;101093.23;;;14.02;52.74
27304;BME280;14791;52.392;13.092;2023-02-17T07:15:35;101091.20;;;14.06;52.74
27304;BME280;14791;52.392;13.092;2023-02-17T07:18:04;101095.36;;;14.10;52.75
27304;BME280;14791;52.392;13.092;2023-02-17T07:20:33;101093.23;;;14.15;52.64
27304;BME280;14791;52.392;13.092;2023-02-17T07:23:01;101095.30;;;14.17;52.57
27304;BME280;14791;52.392;13.092;2023-02-17T07:25:30;101095.11;;;14.20;52.58
27304;BME280;14791;52.392;13.092;2023-02-17T07:27:59;101091.44;;;14.21;52.61
27304;BME280;14791;52.392;13.092;2023-02-17T07:30:28;101097.93;;;14.24;52.56
27304;BME280;14791;52.392;13.092;2023-02-17T07:32:57;101097.34;;;14.26;52.60
27304;BME280;14791;52.392;13.092;2023-02-17T07:35:26;101087.34;;;14.29;52.56
27304;BME280;14791;52.392;13.092;2023-02-17T07:37:59;101076.38;;;14.32;52.59
27304;BME280;14791;52.392;13.092;2023-02-17T07:40:28;101075.31;;;14.34;52.59
27304;BME280;14791;52.392;13.092;2023-02-17T07:42:57;101064.34;;;14.37;52.54
27304;BME280;14791;52.392;13.092;2023-02-17T07:45:26;101062.86;;;14.39;52.59
27304;BME280;14791;52.392;13.092;2023-02-17T07:47:55;101059.98;;;14.42;52.65
27304;BME280;14791;52.392;13.092;2023-02-17T07:50:24;101055.61;;;14.46;52.58
27304;BME280;14791;52.392;13.092;2023-02-17T07:52:52;101055.88;;;14.49;52.53
27304;BME280;14791;52.392;13.092;2023-02-17T07:55:21;101051.97;;;14.53;52.50
27304;BME280;14791;52.392;13.092;2023-02-17T07:57:51;101056.78;;;14.55;52.52
27304;BME280;14791;52.392;13.092;2023-02-17T08:00:21;101051.20;;;14.58;52.53
27304;BME280;14791;52.392;13.092;2023-02-17T08:02:50;101052.67;;;14.62;52.45
27304;BME280;14791;52.392;13.092;2023-02-17T08:05:19;101045.36;;;14.64;52.41
27304;BME280;14791;52.392;13.092;2023-02-17T08:07:48;101054.53;;;14.67;52.43
27304;BME280;14791;52.392;13.092;2023-02-17T08:10:18;101053.34;;;14.72;52.41
27304;BME280;14791;52.392;13.092;2023-02-17T08:13:05;101052.75;;;14.74;52.41
27304;BME280;14791;52.392;13.092;2023-02-17T08:15:46;101061.17;;;14.75;52.54
27304;BME280;14791;52.392;13.092;2023-02-17T08:18:15;101048.72;;;14.74;52.62
27304;BME280;14791;52.392;13.092;2023-02-17T08:20:44;101041.01;;;14.75;52.59
27304;BME280;14791;52.392;13.092;2023-02-17T08:23:13;101049.56;;;14.74;52.59
27304;BME280;14791;52.392;13.092;2023-02-17T08:25:42;101054.09;;;14.74;52.55
27304;BME280;14791;52.392;13.092;2023-02-17T08:28:11;101040.49;;;14.70;52.56
27304;BME280;14791;52.392;13.092;2023-02-17T08:30:40;101045.75;;;14.65;52.71
27304;BME280;14791;52.392;13.092;2023-02-17T08:33:10;101044.61;;;14.62;52.83
27304;BME280;14791;52.392;13.092;2023-02-17T08:35:40;101043.50;;;14.59;52.99
27304;BME280;14791;52.392;13.092;2023-02-17T08:38:09;101039.80;;;14.55;53.13
27304;BME280;14791;52.392;13.092;2023-02-17T08:40:38;101042.56;;;14.53;53.19
27304;BME280;14791;52.392;13.092;2023-02-17T08:43:08;101038.77;;;14.50;53.28
27304;BME280;14791;52.392;13.092;2023-02-17T08:45:37;101039.48;;;14.46;53.50
27304;BME280;14791;52.392;13.092;2023-02-17T08:48:06;101038.60;;;14.46;53.67
27304;BME280;14791;52.392;13.092;2023-02-17T08:50:35;101041.53;;;14.43;53.82
27304;BME280;14791;52.392;13.092;2023-02-17T08:53:04;101036.28;;;14.41;53.82
27304;BME280;14791;52.392;13.092;2023-02-17T08:55:34;101036.74;;;14.41;53.97
27304;BME280;14791;52.392;13.092;2023-02-17T08:58:03;101027.47;;;14.39;54.07
27304;BME280;14791;52.392;13.092;2023-02-17T09:00:32;101021.84;;;14.37;54.23
27304;BME280;14791;52.392;13.092;2023-02-17T09:03:02;101016.30;;;14.33;54.35
27304;BME280;14791;52.392;13.092;2023-02-17T09:05:31;101004.31;;;14.31;54.54
27304;BME280;14791;52.392;13.092;2023-02-17T09:08:02;101000.88;;;14.29;54.69
27304;BME280;14791;52.392;13.092;2023-02-17T09:10:31;100995.63;;;14.28;54.78
27304;BME280;14791;52.392;13.092;2023-02-17T09:13:00;100977.42;;;14.25;54.83
27304;BME280;14791;52.392;13.092;2023-02-17T09:15:29;100985.58;;;14.24;54.96
27304;BME280;14791;52.392;13.092;2023-02-17T09:17:58;100987.77;;;14.24;54.95
27304;BME280;14791;52.392;13.092;2023-02-17T09:20:27;100977.66;;;14.22;55.01
27304;BME280;14791;52.392;13.092;2023-02-17T09:22:55;100966.52;;;14.21;55.15
27304;BME280;14791;52.392;13.092;2023-02-17T09:25:25;100966.52;;;14.21;55.17
27304;BME280;14791;52.392;13.092;2023-02-17T09:27:54;100941.98;;;14.20;55.27
27304;BME280;14791;52.392;13.092;2023-02-17T09:30:23;100933.07;;;14.20;55.47
27304;BME280;14791;52.392;13.092;2023-02-17T09:32:51;100943.32;;;14.20;55.57
27304;BME280;14791;52.392;13.092;2023-02-17T09:35:20;100946.37;;;14.21;55.55
27304;BME280;14791;52.392;13.092;2023-02-17T09:37:49;100937.36;;;14.22;55.59
27304;BME280;14791;52.392;13.092;2023-02-17T09:40:21;100932.34;;;14.23;55.67
27304;BME280;14791;52.392;13.092;2023-02-17T09:42:51;100936.38;;;14.23;55.81
27304;BME280;14791;52.392;13.092;2023-02-17T09:45:25;100933.58;;;14.25;55.84
27304;BME280;14791;52.392;13.092;2023-02-17T09:47:57;100921.84;;;14.26;55.86
27304;BME280;14791;52.392;13.092;2023-02-17T09:50:31;100922.70;;;14.26;55.83
27304;BME280;14791;52.392;13.092;2023-02-17T09:53:02;100921.00;;;14.25;55.84
27304;BME280;14791;52.392;13.092;2023-02-17T09:55:42;100913.89;;;14.24;55.92
27304;BME280;14791;52.392;13.092;2023-02-17T10:01:12;100898.27;;;14.24;56.19
27304;BME280;14791;52.392;13.092;2023-02-17T10:03:45;100896.08;;;14.23;56.36
27304;BME280;14791;52.392;13.092;2023-02-17T10:06:17;100895.84;;;14.26;56.41
27304;BME280;14791;52.392;13.092;2023-02-17T10:08:52;100887.18;;;14.29;56.45
27304;BME280;14791;52.392;13.092;2023-02-17T10:11:35;100888.28;;;14.32;56.46
27304;BME280;14791;52.392;13.092;2023-02-17T10:14:10;100878.28;;;14.34;56.48
27304;BME280;14791;52.392;13.092;2023-02-17T10:16:43;100881.86;;;14.34;56.43
27304;BME280;14791;52.392;13.092;2023-02-17T10:19:28;100884.80;;;14.37;56.35
27304;BME280;14791;52.392;13.092;2023-02-17T10:22:07;100861.45;;;14.37;56.50
27304;BME280;14791;52.392;13.092;2023-02-17T10:24:36;100870.02;;;14.37;56.56
27304;BME280;14791;52.392;13.092;2023-02-17T10:32:51;100853.65;;;14.40;56.82
27304;BME280;14791;52.392;13.092;2023-02-17T10:35:26;100854.89;;;14.41;56.98
27304;BME280;14791;52.392;13.092;2023-02-17T10:40:49;100845.64;;;14.51;56.89
27304;BME280;14791;52.392;13.092;2023-02-17T10:43:25;100837.93;;;14.52;56.98
27304;BME280;14791;52.392;13.092;2023-02-17T10:45:56;100837.12;;;14.57;56.89
27304;BME280;14791;52.392;13.092;2023-02-17T10:48:33;100823.44;;;14.60;56.84
27304;BME280;14791;52.392;13.092;2023-02-17T10:51:02;100831.64;;;14.64;56.83
27304;BME280;14791;52.392;13.092;2023-02-17T10:53:35;100824.20;;;14.68;56.91
27304;BME280;14791;52.392;13.092;2023-02-17T10:56:12;100818.83;;;14.74;56.99
27304;BME280;14791;52.392;13.092;2023-02-17T11:01:16;100815.43;;;14.83;56.70
27304;BME280;14791;52.392;13.092;2023-02-17T11:03:45;100793.92;;;14.83;56.69
27304;BME280;14791;52.392;13.092;2023-02-17T11:06:16;100785.00;;;14.88;56.71
27304;BME280;14791;52.392;13.092;2023-02-17T11:11:26;100771.78;;;14.96;56.60
27304;BME280;14791;52.392;13.092;2023-02-17T11:14:18;100766.53;;;15.00;56.54
27304;BME280;14791;52.392;13.092;2023-02-17T11:16:53;100755.17;;;15.02;56.55
27304;BME280;14791;52.392;13.092;2023-02-17T11:19:34;100749.19;;;15.04;56.59
27304;BME280;14791;52.392;13.092;2023-02-17T11:21:56;100740.86;;;15.07;56.56
27304;BME280;14791;52.392;13.092;2023-02-17T11:24:27;100732.77;;;15.13;56.51
27304;BME280;14791;52.392;13.092;2023-02-17T11:27:02;100733.75;;;15.18;56.44
27304;BME280;14791;52.392;13.092;2023-02-17T11:29:31;100734.96;;;15.25;56.36
27304;BME280;14791;52.392;13.092;2023-02-17T11:32:14;100724.32;;;15.29;56.32
27304;BME280;14791;52.392;13.092;2023-02-17T11:34:41;100712.69;;;15.34;56.19
27304;BME280;14791;52.392;13.092;2023-02-17T11:39:47;100705.94;;;15.45;56.10
27304;BME280;14791;52.392;13.092;2023-02-17T11:42:25;100701.14;;;15.49;55.97
27304;BME280;14791;52.392;13.092;2023-02-17T11:44:57;100699.80;;;15.55;55.94
27304;BME280;14791;52.392;13.092;2023-02-17T11:47:33;100689.14;;;15.59;55.94
27304;BME280;14791;52.392;13.092;2023-02-17T11:55:42;100666.34;;;15.74;55.61
27304;BME280;14791;52.392;13.092;2023-02-17T11:58:22;100656.14;;;15.78;55.49
27304;BME280;14791;52.392;13.092;2023-02-17T12:04:02;100628.20;;;15.84;55.44
27304;BME280;14791;52.392;13.092;2023-02-17T12:07:06;100624.05;;;15.86;55.37
27304;BME280;14791;52.392;13.092;2023-02-17T12:09:16;100621.08;;;15.89;55.33
27304;BME280;14791;52.392;13.092;2023-02-17T12:12:14;100634.39;;;15.96;55.21
27304;BME280;14791;52.392;13.092;2023-02-17T12:19:53;100627.92;;;16.14;54.95
27304;BME280;14791;52.392;13.092;2023-02-17T12:23:09;100627.52;;;16.19;54.88
27304;BME280;14791;52.392;13.092;2023-02-17T12:31:08;100626.99;;;16.40;54.79
27304;BME280;14791;52.392;13.092;2023-02-17T12:33:17;100605.24;;;16.47;54.62
27304;BME280;14791;52.392;13.092;2023-02-17T12:35:56;100606.41;;;16.54;54.62
27304;BME280;14791;52.392;13.092;2023-02-17T12:38:21;100594.93;;;16.62;54.56
27304;BME280;14791;52.392;13.092;2023-02-17T12:41:06;100603.17;;;16.70;54.39
27304;BME280;14791;52.392;13.092;2023-02-17T12:43:52;100582.87;;;16.82;54.07
27304;BME280;14791;52.392;13.092;2023-02-17T12:46:40;100568.13;;;16.86;54.08
27304;BME280;14791;52.392;13.092;2023-02-17T12:49:13;100553.56;;;16.92;53.98
27304;BME280;14791;52.392;13.092;2023-02-17T12:54:17;100549.61;;;17.06;53.78
27304;BME280;14791;52.392;13.092;2023-02-17T12:57:04;100558.84;;;17.13;53.60
27304;BME280;14791;52.392;13.092;2023-02-17T12:59:32;100560.98;;;17.19;53.47
27304;BME280;14791;52.392;13.092;2023-02-17T13:02:02;100564.11;;;17.25;53.39
27304;BME280;14791;52.392;13.092;2023-02-17T13:04:32;100560.48;;;17.30;53.24
27304;BME280;14791;52.392;13.092;2023-02-17T13:07:16;100566.43;;;17.33;53.16
27304;BME280;14791;52.392;13.092;2023-02-17T13:09:45;100561.62;;;17.37;52.97
27304;BME280;14791;52.392;13.092;2023-02-17T13:14:53;100556.63;;;17.42;52.88
27304;BME280;14791;52.392;13.092;2023-02-17T13:17:25;100558.36;;;17.43;52.90
27304;BME280;14791;52.392;13.092;2023-02-17T13:22:43;100562.33;;;17.49;52.84
27304;BME280;14791;52.392;13.092;2023-02-17T13:25:30;100558.11;;;17.50;52.85
27304;BME280;14791;52.392;13.092;2023-02-17T13:28:01;100547.89;;;17.54;52.88
27304;BME280;14791;52.392;13.092;2023-02-17T13:30:39;100554.13;;;17.54;52.91
27304;BME280;14791;52.392;13.092;2023-02-17T13:35:52;100558.67;;;17.63;52.78
27304;BME280;14791;52.392;13.092;2023-02-17T13:38:30;100546.22;;;17.67;52.80
27304;BME280;14791;52.392;13.092;2023-02-17T13:41:02;100549.84;;;17.71;52.67
27304;BME280;14791;52.392;13.092;2023-02-17T13:43:44;100551.39;;;17.74;52.63
27304;BME280;14791;52.392;13.092;2023-02-17T13:46:04;100546.91;;;17.78;52.42
27304;BME280;14791;52.392;13.092;2023-02-17T13:48:35;100534.34;;;17.83;52.24
27304;BME280;14791;52.392;13.092;2023-02-17T13:51:06;100538.09;;;17.86;52.25
27304;BME280;14791;52.392;13.092;2023-02-17T13:53:39;100544.59;;;17.89;52.17
27304;BME280;14791;52.392;13.092;2023-02-17T13:56:28;100546.98;;;17.92;52.10
27304;BME280;14791;52.392;13.092;2023-02-17T13:59:15;100536.88;;;17.94;52.10
27304;BME280;14791;52.392;13.092;2023-02-17T14:01:45;100540.09;;;17.94;52.07
27304;BME280;14791;52.392;13.092;2023-02-17T14:04:23;100540.56;;;17.93;52.09
27304;BME280;14791;52.392;13.092;2023-02-17T14:06:52;100539.59;;;17.94;51.97